Time;durP1;ratioP1;P1;durP2;ratioP2;P2;SDS_P1;SDS_P2;PMS_P1;PMS_P2;Temp;Humidity;BMP_temperature;BMP_pressure;BME280_temperature;BME280_humidity;BME280_pressure;Samples;Min_cycle;Max_cycle;Signal;HPM_P1;HPM_P2
2022/04/10 00:00:43;;;;;;;5.35;3.50;;;3.80;99.90;;;;;;2072450;28;20038;-68
2022/04/10 00:01:43;;;;;;;5.05;3.78;;;3.80;99.90;;;;;;2072403;28;20026;-68
2022/04/10 00:02:44;;;;;;;4.88;3.53;;;3.80;99.90;;;;;;2072268;28;20061;-68
2022/04/10 00:03:45;;;;;;;5.72;3.50;;;3.80;99.90;;;;;;2072032;28;20124;-67
2022/04/10 00:04:45;;;;;;;5.95;4.70;;;3.80;99.90;;;;;;2071491;28;20042;-68
2022/04/10 00:05:46;;;;;;;5.60;3.90;;;3.80;99.90;;;;;;2071598;28;20034;-68
2022/04/10 00:06:47;;;;;;;5.97;3.42;;;3.80;99.90;;;;;;2072306;28;20058;-67
2022/04/10 00:07:48;;;;;;;4.32;3.25;;;3.80;99.90;;;;;;2071610;28;20045;-68
2022/04/10 00:08:48;;;;;;;6.75;3.60;;;3.80;99.90;;;;;;2071587;28;20084;-68
2022/04/10 00:09:49;;;;;;;5.47;3.50;;;3.80;99.90;;;;;;2071516;28;20038;-68
2022/04/10 00:10:49;;;;;;;5.55;3.90;;;3.80;99.90;;;;;;2062939;28;20089;-68
2022/04/10 00:11:50;;;;;;;8.48;3.60;;;3.80;99.90;;;;;;2071489;28;20030;-69
2022/04/10 00:12:50;;;;;;;4.93;3.80;;;3.80;99.90;;;;;;2071953;28;20500;-68
2022/04/10 00:13:51;;;;;;;4.00;3.60;;;3.70;99.90;;;;;;2071552;28;20761;-69
2022/04/10 00:14:52;;;;;;;7.00;3.80;;;3.70;99.90;;;;;;2070983;28;20500;-69
2022/04/10 00:15:52;;;;;;;4.70;3.58;;;3.70;99.90;;;;;;2071152;28;20389;-69
2022/04/10 00:16:53;;;;;;;4.97;3.58;;;3.70;99.90;;;;;;2071142;28;20248;-68
2022/04/10 00:17:53;;;;;;;4.45;3.47;;;3.70;99.90;;;;;;2072006;28;20058;-68
2022/04/10 00:18:54;;;;;;;6.10;3.70;;;3.70;99.90;;;;;;2072267;28;20628;-68
2022/04/10 00:19:55;;;;;;;5.60;3.40;;;3.70;99.90;;;;;;2071866;28;20520;-68
2022/04/10 00:20:56;;;;;;;5.25;3.53;;;3.70;99.90;;;;;;2071988;28;20045;-67
2022/04/10 00:21:56;;;;;;;4.68;3.40;;;3.80;99.90;;;;;;2071909;28;20033;-69
2022/04/10 00:22:57;;;;;;;6.70;3.28;;;3.70;99.90;;;;;;2071962;28;20026;-68
2022/04/10 00:23:58;;;;;;;5.95;3.38;;;3.70;99.90;;;;;;2063007;28;20073;-68
2022/04/10 00:24:59;;;;;;;4.57;3.53;;;3.70;99.90;;;;;;2063262;28;20149;-69
2022/04/10 00:26:00;;;;;;;5.32;3.53;;;3.60;99.90;;;;;;2063243;28;20030;-68
2022/04/10 00:27:00;;;;;;;5.68;3.40;;;3.60;99.90;;;;;;2071364;28;20030;-68
2022/04/10 00:28:01;;;;;;;6.57;3.22;;;3.60;99.90;;;;;;2071991;28;20034;-69
2022/04/10 00:29:02;;;;;;;7.88;3.50;;;3.60;99.90;;;;;;2072091;28;20600;-68
2022/04/10 00:30:04;;;;;;;4.93;3.40;;;3.60;99.90;;;;;;2071266;28;20797;-68
2022/04/10 00:31:05;;;;;;;5.97;3.58;;;3.60;99.90;;;;;;2063229;28;20082;-68
2022/04/10 00:32:06;;;;;;;5.13;3.40;;;3.60;99.90;;;;;;2063342;28;20645;-69
2022/04/10 00:33:06;;;;;;;4.88;3.50;;;3.60;99.90;;;;;;2071277;28;20129;-68
2022/04/10 00:34:07;;;;;;;4.85;3.25;;;3.60;99.90;;;;;;2063251;28;20033;-69
2022/04/10 00:35:10;;;;;;;4.43;3.42;;;3.60;99.90;;;;;;2063208;28;20631;-69
2022/04/10 00:36:11;;;;;;;6.88;3.60;;;3.60;99.90;;;;;;2063759;28;20398;-68
2022/04/10 00:37:12;;;;;;;4.47;3.20;;;3.60;99.90;;;;;;2063056;28;20038;-68
2022/04/10 00:38:12;;;;;;;5.15;3.50;;;3.60;99.90;;;;;;2055058;28;20081;-68
2022/04/10 00:39:13;;;;;;;5.07;3.42;;;3.60;99.90;;;;;;2055108;28;20047;-68
2022/04/10 00:40:14;;;;;;;4.47;3.40;;;3.60;99.90;;;;;;2047133;28;20712;-68
2022/04/10 00:41:15;;;;;;;6.47;3.42;;;3.70;99.90;;;;;;2063363;28;20022;-68
2022/04/10 00:42:15;;;;;;;4.95;3.50;;;3.70;99.90;;;;;;2071333;28;20026;-68
2022/04/10 00:43:16;;;;;;;4.70;3.30;;;3.70;99.90;;;;;;2071002;28;20018;-68
2022/04/10 00:44:18;;;;;;;5.68;3.10;;;3.70;99.90;;;;;;2063976;28;20429;-69
2022/04/10 00:45:20;;;;;;;7.20;3.15;;;3.70;99.90;;;;;;2064083;28;20110;-68
2022/04/10 00:46:21;;;;;;;4.78;3.05;;;3.70;99.90;;;;;;2071270;28;20090;-68
2022/04/10 00:47:22;;;;;;;7.68;3.40;;;3.70;99.90;;;;;;2071090;28;20485;-68
2022/04/10 00:48:22;;;;;;;6.18;3.55;;;3.70;99.90;;;;;;2055004;28;20093;-69
2022/04/10 00:49:23;;;;;;;5.60;3.20;;;3.80;99.90;;;;;;2054959;28;20506;-68
2022/04/10 00:50:23;;;;;;;7.32;3.55;;;3.80;99.90;;;;;;2054894;28;20035;-68
2022/04/10 00:51:40;;;;;;;5.18;3.50;;;3.80;99.90;;;;;;2063081;28;20046;-69
2022/04/10 00:52:42;;;;;;;6.03;3.28;;;3.80;99.90;;;;;;2069279;28;20036;-69
2022/04/10 00:53:44;;;;;;;5.85;3.30;;;3.80;99.90;;;;;;2063436;28;20605;-69
2022/04/10 00:54:45;;;;;;;5.65;3.45;;;3.80;99.90;;;;;;2063778;28;20034;-69
2022/04/10 00:55:45;;;;;;;3.95;3.25;;;3.90;99.90;;;;;;2063581;28;20034;-69
2022/04/10 00:56:47;;;;;;;7.80;3.10;;;3.80;99.90;;;;;;2062945;28;20173;-69
2022/04/10 00:57:48;;;;;;;5.13;3.13;;;3.90;99.90;;;;;;2062908;28;20489;-69
2022/04/10 00:58:48;;;;;;;5.47;3.20;;;3.90;99.90;;;;;;2070903;28;20026;-69
2022/04/10 00:59:49;;;;;;;4.72;3.10;;;3.90;99.90;;;;;;2063291;28;20105;-69
2022/04/10 01:00:50;;;;;;;5.22;3.20;;;4.00;99.90;;;;;;2062946;28;20755;-68
2022/04/10 01:01:50;;;;;;;5.90;3.30;;;4.00;99.90;;;;;;2063233;28;20026;-68
2022/04/10 01:02:51;;;;;;;4.57;3.30;;;4.00;99.90;;;;;;2063202;28;20081;-68
2022/04/10 01:03:52;;;;;;;5.03;3.15;;;4.00;99.90;;;;;;2063066;28;20061;-69
2022/04/10 01:04:53;;;;;;;6.10;3.30;;;4.00;99.90;;;;;;2063910;28;20081;-69
2022/04/10 01:05:53;;;;;;;4.05;3.03;;;4.10;99.90;;;;;;2063698;28;20093;-69
2022/04/10 01:06:56;;;;;;;5.80;3.30;;;4.10;99.90;;;;;;2071010;28;20070;-69
2022/04/10 01:07:57;;;;;;;5.90;3.10;;;4.10;99.90;;;;;;2070996;28;20025;-69
2022/04/10 01:08:58;;;;;;;6.63;3.00;;;4.10;99.90;;;;;;2070997;28;20632;-69
2022/04/10 01:09:59;;;;;;;6.07;2.80;;;4.10;99.90;;;;;;2062846;28;20031;-69
2022/04/10 01:10:59;;;;;;;4.80;2.85;;;4.10;99.90;;;;;;2054840;28;20038;-68
2022/04/10 01:12:01;;;;;;;5.10;2.83;;;4.20;99.90;;;;;;2062766;28;20026;-68
2022/04/10 01:13:04;;;;;;;5.95;3.08;;;4.20;99.90;;;;;;2062945;28;20038;-68
2022/04/10 01:14:06;;;;;;;7.10;2.90;;;4.20;99.90;;;;;;2063012;28;20117;-69
2022/04/10 01:15:09;;;;;;;5.40;2.80;;;4.20;99.90;;;;;;2055231;28;20039;-69
2022/04/10 01:16:14;;;;;;;4.65;2.90;;;4.20;99.90;;;;;;2055430;28;20893;-68
2022/04/10 01:17:16;;;;;;;6.38;3.08;;;4.20;99.90;;;;;;2062889;28;20461;-69
2022/04/10 01:18:16;;;;;;;5.55;2.70;;;4.20;99.90;;;;;;2071429;28;20121;-67
2022/04/10 01:19:19;;;;;;;4.90;2.47;;;4.30;99.90;;;;;;2056185;28;20118;-67
2022/04/10 01:20:21;;;;;;;6.18;2.70;;;4.30;99.90;;;;;;2063678;28;20497;-67
2022/04/10 01:21:27;;;;;;;5.15;2.58;;;4.20;99.90;;;;;;2072715;28;20034;-67
2022/04/10 01:22:34;;;;;;;7.10;3.00;;;4.30;99.90;;;;;;2058585;28;20434;-68
2022/04/10 01:23:37;;;;;;;5.07;2.90;;;4.30;99.90;;;;;;2065590;28;20038;-68
2022/04/10 01:24:40;;;;;;;4.95;2.65;;;4.30;99.90;;;;;;2071057;28;20026;-68
2022/04/10 01:25:44;;;;;;;6.05;2.80;;;4.30;99.90;;;;;;2056244;28;20173;-69
2022/04/10 01:26:46;;;;;;;5.93;2.60;;;4.30;99.90;;;;;;2063914;28;20033;-67
2022/04/10 01:27:49;;;;;;;6.45;2.80;;;4.30;99.90;;;;;;2071558;28;20034;-67
2022/04/10 01:29:05;;;;;;;5.68;2.60;;;4.30;99.90;;;;;;2062893;28;20391;-67
2022/04/10 01:30:11;;;;;;;5.53;2.90;;;4.30;99.90;;;;;;2064651;28;20018;-68
2022/04/10 01:31:12;;;;;;;4.57;2.90;;;4.30;99.90;;;;;;2062837;28;20379;-68
2022/04/10 01:32:12;;;;;;;5.45;2.63;;;4.30;99.90;;;;;;2054904;28;20095;-68
2022/04/10 01:33:14;;;;;;;5.82;3.10;;;4.30;99.90;;;;;;2070712;28;20738;-68
2022/04/10 01:34:17;;;;;;;4.85;2.90;;;4.30;99.90;;;;;;2071266;28;20022;-68
2022/04/10 01:35:21;;;;;;;3.30;2.90;;;4.30;99.90;;;;;;2054900;28;20568;-68
2022/04/10 01:36:24;;;;;;;6.22;2.90;;;4.30;99.90;;;;;;2048058;28;20070;-69
2022/04/10 01:37:27;;;;;;;4.75;2.78;;;4.30;99.90;;;;;;2063443;28;20026;-68
2022/04/10 01:38:29;;;;;;;6.38;2.90;;;4.30;99.90;;;;;;2063272;28;20070;-68
2022/04/10 01:39:29;;;;;;;6.75;2.85;;;4.30;99.90;;;;;;2063336;28;20031;-68
2022/04/10 01:40:31;;;;;;;5.85;3.20;;;4.30;99.90;;;;;;2063554;28;20057;-68
2022/04/10 01:41:34;;;;;;;6.32;2.90;;;4.30;99.90;;;;;;2055160;28;20035;-69
2022/04/10 01:42:36;;;;;;;5.18;2.60;;;4.30;99.90;;;;;;2055538;28;20114;-68
2022/04/10 01:43:47;;;;;;;4.13;2.70;;;4.40;99.90;;;;;;2063135;28;20429;-68
2022/04/10 01:44:48;;;;;;;5.20;3.15;;;4.40;99.90;;;;;;2062656;28;20018;-68
2022/04/10 01:45:51;;;;;;;6.20;3.10;;;4.40;99.90;;;;;;2055102;28;20077;-68
2022/04/10 01:46:52;;;;;;;5.15;2.83;;;4.40;99.90;;;;;;2062757;28;20692;-67
2022/04/10 01:47:53;;;;;;;6.55;3.20;;;4.30;99.90;;;;;;2071070;28;20037;-67
2022/04/10 01:48:55;;;;;;;8.30;3.25;;;4.40;99.90;;;;;;2063195;28;20029;-68
2022/04/10 01:49:56;;;;;;;8.63;4.25;;;4.40;99.90;;;;;;2062720;28;20126;-68
2022/04/10 01:50:56;;;;;;;5.38;3.28;;;4.30;99.90;;;;;;2070911;28;20458;-68
2022/04/10 01:51:57;;;;;;;6.22;3.63;;;4.30;99.90;;;;;;2071180;28;20050;-68
2022/04/10 01:52:58;;;;;;;7.30;4.10;;;4.30;99.90;;;;;;2063351;28;20026;-68
2022/04/10 01:54:01;;;;;;;5.88;3.60;;;4.30;99.90;;;;;;2062531;28;20042;-68
2022/04/10 01:55:02;;;;;;;6.45;3.50;;;4.30;99.90;;;;;;2054806;28;20022;-69
2022/04/10 01:56:04;;;;;;;5.22;3.42;;;4.30;99.90;;;;;;2062628;28;20486;-68
2022/04/10 01:57:07;;;;;;;5.97;3.35;;;4.30;99.90;;;;;;2070834;28;20684;-68
2022/04/10 01:58:08;;;;;;;6.45;3.65;;;4.30;99.90;;;;;;2062708;28;20030;-69
2022/04/10 01:59:09;;;;;;;6.53;3.60;;;4.30;99.90;;;;;;2054775;28;20054;-69
2022/04/10 02:00:11;;;;;;;5.47;3.30;;;4.30;99.90;;;;;;2054610;28;20693;-68
2022/04/10 02:01:15;;;;;;;4.38;3.38;;;4.30;99.90;;;;;;2063094;28;20605;-68
2022/04/10 02:02:16;;;;;;;6.20;3.00;;;4.30;99.90;;;;;;2070864;28;20026;-69
2022/04/10 02:03:17;;;;;;;6.65;3.40;;;4.30;99.90;;;;;;2070650;28;20582;-68
2022/04/10 02:04:18;;;;;;;5.93;3.20;;;4.30;99.90;;;;;;2070583;28;20026;-68
2022/04/10 02:05:19;;;;;;;6.40;3.40;;;4.30;99.90;;;;;;2070815;28;20060;-68
2022/04/10 02:06:20;;;;;;;5.45;3.40;;;4.30;99.90;;;;;;2062805;28;20022;-69
2022/04/10 02:07:24;;;;;;;4.85;2.97;;;4.30;99.90;;;;;;2054490;28;20023;-69
2022/04/10 02:08:26;;;;;;;8.10;3.03;;;4.30;99.90;;;;;;2054650;28;20149;-68
2022/04/10 02:09:26;;;;;;;4.90;3.45;;;4.30;99.90;;;;;;2054779;28;20039;-69
2022/04/10 02:10:28;;;;;;;6.93;3.30;;;4.30;99.90;;;;;;2062867;28;20077;-68
2022/04/10 02:11:29;;;;;;;6.25;3.20;;;4.30;99.90;;;;;;2070901;28;20437;-68
2022/04/10 02:12:34;;;;;;;6.50;3.58;;;4.30;99.90;;;;;;2070457;28;20037;-70
2022/04/10 02:13:35;;;;;;;4.53;3.30;;;4.30;99.90;;;;;;2062916;28;20501;-68
2022/04/10 02:14:35;;;;;;;6.53;3.30;;;4.30;99.90;;;;;;2065321;28;20019;-68
2022/04/10 02:15:38;;;;;;;6.82;3.50;;;4.30;99.90;;;;;;2071266;28;20032;-67
2022/04/10 02:16:40;;;;;;;5.80;3.00;;;4.30;99.90;;;;;;2072164;28;20121;-68
2022/04/10 02:17:41;;;;;;;5.57;3.30;;;4.20;99.90;;;;;;2047223;28;20119;-68
2022/04/10 02:18:42;;;;;;;7.20;3.10;;;4.20;99.90;;;;;;2046973;28;20074;-68
2022/04/10 02:19:43;;;;;;;6.50;3.38;;;4.20;99.90;;;;;;2054762;28;20078;-68
2022/04/10 02:20:43;;;;;;;4.97;2.97;;;4.20;99.90;;;;;;2055010;28;20116;-68
2022/04/10 02:21:44;;;;;;;6.63;3.03;;;4.20;99.90;;;;;;2062714;28;20034;-68
2022/04/10 02:22:45;;;;;;;7.00;3.50;;;4.20;99.90;;;;;;2070922;28;20126;-68
2022/04/10 02:23:45;;;;;;;6.47;3.25;;;4.10;99.90;;;;;;2062431;28;20030;-69
2022/04/10 02:24:46;;;;;;;6.07;3.15;;;4.20;99.90;;;;;;2054621;28;20031;-68
2022/04/10 02:25:47;;;;;;;6.63;3.17;;;4.10;99.90;;;;;;2054733;28;20034;-68
2022/04/10 02:26:48;;;;;;;6.63;3.10;;;4.10;99.90;;;;;;2062531;28;20026;-68
2022/04/10 02:27:48;;;;;;;10.30;3.42;;;4.10;99.90;;;;;;2063159;28;20065;-68
2022/04/10 02:28:49;;;;;;;7.22;3.28;;;4.10;99.90;;;;;;2064689;28;20026;-68
2022/04/10 02:29:50;;;;;;;7.10;3.05;;;4.10;99.90;;;;;;2078919;28;20030;-69
2022/04/10 02:30:51;;;;;;;5.35;3.13;;;4.10;99.90;;;;;;2078143;28;20627;-68
2022/04/10 02:31:52;;;;;;;5.35;3.28;;;4.10;99.90;;;;;;2070494;28;20029;-68
2022/04/10 02:32:53;;;;;;;7.90;3.25;;;4.10;99.90;;;;;;2062085;28;20056;-69
2022/04/10 02:33:54;;;;;;;5.07;2.90;;;4.10;99.90;;;;;;2065250;28;20018;-68
2022/04/10 02:34:55;;;;;;;4.68;3.00;;;4.10;99.90;;;;;;2071008;28;20021;-69
2022/04/10 02:35:56;;;;;;;6.68;3.30;;;4.00;99.90;;;;;;2062711;28;20137;-69
2022/04/10 02:36:57;;;;;;;5.22;2.90;;;4.10;99.90;;;;;;2062437;28;20026;-69
2022/04/10 02:37:59;;;;;;;5.15;2.95;;;4.10;99.90;;;;;;2061248;28;20061;-69
2022/04/10 02:39:02;;;;;;;5.50;3.00;;;4.10;99.90;;;;;;2069682;28;20024;-68
2022/04/10 02:40:04;;;;;;;4.85;2.88;;;4.10;99.90;;;;;;2070302;28;20029;-69
2022/04/10 02:41:05;;;;;;;6.78;2.80;;;4.00;99.90;;;;;;2072130;28;20030;-69
2022/04/10 02:42:06;;;;;;;6.85;3.10;;;4.00;99.90;;;;;;2072166;28;20489;-68
2022/04/10 02:43:08;;;;;;;5.60;2.55;;;4.00;99.90;;;;;;2071927;28;20049;-68
2022/04/10 02:44:09;;;;;;;4.60;2.83;;;4.00;99.90;;;;;;2072780;28;20026;-68
2022/04/10 02:45:11;;;;;;;6.75;3.15;;;4.00;99.90;;;;;;2071981;28;20025;-68
2022/04/10 02:46:11;;;;;;;6.25;3.13;;;4.00;99.90;;;;;;2068832;28;20472;-68
2022/04/10 02:47:16;;;;;;;8.07;3.00;;;4.00;99.90;;;;;;2070062;28;20022;-67
2022/04/10 02:48:17;;;;;;;6.65;3.00;;;4.00;99.90;;;;;;2063983;28;20125;-69
2022/04/10 02:49:18;;;;;;;5.90;2.95;;;4.00;99.90;;;;;;2071452;28;20579;-69
2022/04/10 02:50:19;;;;;;;5.85;3.05;;;4.00;99.90;;;;;;2063870;28;20031;-69
2022/04/10 02:51:20;;;;;;;5.80;2.90;;;4.10;99.90;;;;;;2063296;28;20648;-69
2022/04/10 02:52:25;;;;;;;5.65;3.00;;;4.00;99.90;;;;;;2064191;28;20037;-69
2022/04/10 02:53:26;;;;;;;4.45;2.90;;;4.00;99.90;;;;;;2062914;28;20026;-69
2022/04/10 02:54:27;;;;;;;5.25;2.80;;;4.00;99.90;;;;;;2063108;28;20030;-69
2022/04/10 02:55:28;;;;;;;6.47;2.80;;;4.00;99.90;;;;;;2071881;28;20125;-69
2022/04/10 02:56:28;;;;;;;4.30;2.75;;;4.00;99.90;;;;;;2071959;28;20034;-68
2022/04/10 02:57:29;;;;;;;8.85;3.28;;;4.10;99.90;;;;;;2071804;28;20104;-69
2022/04/10 02:58:30;;;;;;;6.75;2.85;;;4.10;99.90;;;;;;2063699;28;20033;-69
2022/04/10 02:59:30;;;;;;;7.57;3.08;;;4.00;99.90;;;;;;2072112;28;20085;-68
2022/04/10 03:00:31;;;;;;;7.10;3.00;;;4.00;99.90;;;;;;2072270;28;20050;-69
2022/04/10 03:01:32;;;;;;;7.38;3.38;;;4.00;99.90;;;;;;2072615;28;20034;-68
2022/04/10 03:02:33;;;;;;;6.13;2.75;;;4.00;99.90;;;;;;2071802;28;20025;-68
2022/04/10 03:03:34;;;;;;;6.90;2.88;;;4.00;99.90;;;;;;2055642;28;20027;-68
2022/04/10 03:04:35;;;;;;;6.32;3.05;;;4.00;99.90;;;;;;2063905;28;20105;-68
2022/04/10 03:05:36;;;;;;;9.35;3.03;;;4.00;99.90;;;;;;2071939;28;20041;-68
2022/04/10 03:06:37;;;;;;;9.30;3.20;;;4.00;99.90;;;;;;2063140;28;20026;-69
2022/04/10 03:07:38;;;;;;;8.27;2.83;;;4.00;99.90;;;;;;2063555;28;20046;-69
2022/04/10 03:08:38;;;;;;;6.40;2.90;;;4.10;99.90;;;;;;2063044;28;20093;-68
2022/04/10 03:09:39;;;;;;;8.15;2.88;;;4.10;99.90;;;;;;2072284;28;20057;-68
2022/04/10 03:10:40;;;;;;;5.15;2.85;;;4.00;99.90;;;;;;2063529;28;20122;-67
2022/04/10 03:11:40;;;;;;;8.35;3.50;;;4.00;99.90;;;;;;2063863;28;20030;-68
2022/04/10 03:12:41;;;;;;;8.57;3.08;;;4.10;99.90;;;;;;2071746;28;20030;-68
2022/04/10 03:13:42;;;;;;;7.43;3.15;;;4.10;99.90;;;;;;2063383;28;20031;-68
2022/04/10 03:14:42;;;;;;;6.43;2.67;;;4.10;99.90;;;;;;2065599;28;20034;-67
2022/04/10 03:15:45;;;;;;;6.38;2.85;;;4.10;99.90;;;;;;2063925;28;20073;-68
2022/04/10 03:16:48;;;;;;;8.05;2.90;;;4.10;99.90;;;;;;2055707;28;20030;-68
2022/04/10 03:17:49;;;;;;;9.60;2.88;;;4.10;99.90;;;;;;2063527;28;20232;-68
2022/04/10 03:18:51;;;;;;;8.98;3.13;;;4.10;99.90;;;;;;2071770;28;20053;-69
2022/04/10 03:19:51;;;;;;;8.45;2.88;;;4.10;99.90;;;;;;2063918;28;20026;-68
2022/04/10 03:20:52;;;;;;;8.75;2.92;;;4.10;99.90;;;;;;2060551;28;20022;-68
2022/04/10 03:21:54;;;;;;;8.57;3.00;;;4.10;99.90;;;;;;2061258;28;20033;-68
2022/04/10 03:22:55;;;;;;;7.35;2.80;;;4.10;99.90;;;;;;2070730;28;20025;-68
2022/04/10 03:23:56;;;;;;;7.05;2.92;;;4.10;99.90;;;;;;2071464;28;20476;-68
2022/04/10 03:24:56;;;;;;;6.40;2.90;;;4.10;99.90;;;;;;2063694;28;20102;-69
2022/04/10 03:25:57;;;;;;;8.00;2.92;;;4.10;99.90;;;;;;2071708;28;20028;-69
2022/04/10 03:26:59;;;;;;;7.63;3.08;;;4.20;99.90;;;;;;2071508;28;20500;-69
2022/04/10 03:27:59;;;;;;;8.80;3.13;;;4.10;99.90;;;;;;2071668;28;20034;-69
2022/04/10 03:29:00;;;;;;;7.50;3.00;;;4.10;99.90;;;;;;2071498;28;20022;-69
2022/04/10 03:30:01;;;;;;;6.18;2.70;;;4.10;99.90;;;;;;2071786;28;20026;-69
2022/04/10 03:31:02;;;;;;;10.38;2.90;;;4.10;99.90;;;;;;2063647;28;20126;-69
2022/04/10 03:32:04;;;;;;;7.60;2.88;;;4.10;99.90;;;;;;2063709;28;20032;-69
2022/04/10 03:33:05;;;;;;;8.05;3.08;;;4.10;99.90;;;;;;2063435;28;20076;-69
2022/04/10 03:34:05;;;;;;;8.77;3.10;;;4.10;99.90;;;;;;2071769;28;20052;-69
2022/04/10 03:35:07;;;;;;;6.15;2.70;;;4.10;99.90;;;;;;2063494;28;20126;-69
2022/04/10 03:36:08;;;;;;;10.02;2.85;;;4.10;99.90;;;;;;2060302;28;20477;-69
2022/04/10 03:37:08;;;;;;;6.88;2.72;;;4.10;99.90;;;;;;2062979;28;20049;-69
2022/04/10 03:38:10;;;;;;;7.78;3.10;;;4.10;99.90;;;;;;2063515;28;20034;-68
2022/04/10 03:39:11;;;;;;;7.47;2.80;;;4.10;99.90;;;;;;2062853;28;20041;-69
2022/04/10 03:40:12;;;;;;;8.85;3.10;;;4.10;99.90;;;;;;2071438;28;20018;-69
2022/04/10 03:41:14;;;;;;;5.63;2.63;;;4.10;99.90;;;;;;2071432;28;20134;-69
2022/04/10 03:42:16;;;;;;;6.55;2.78;;;4.10;99.90;;;;;;2071573;28;20026;-68
2022/04/10 03:43:17;;;;;;;8.13;3.13;;;4.10;99.90;;;;;;2063095;28;20037;-68
2022/04/10 03:44:18;;;;;;;7.63;2.95;;;4.10;99.90;;;;;;2067519;28;20474;-69
2022/04/10 03:45:19;;;;;;;8.07;2.90;;;4.20;99.90;;;;;;2070548;28;20018;-69
2022/04/10 03:46:19;;;;;;;6.53;2.85;;;4.20;99.90;;;;;;2071994;28;20109;-69
2022/04/10 03:47:20;;;;;;;7.40;3.05;;;4.10;99.90;;;;;;2071851;28;20135;-69
2022/04/10 03:48:21;;;;;;;7.63;3.15;;;4.10;99.90;;;;;;2072042;28;20026;-69
2022/04/10 03:49:22;;;;;;;9.48;2.95;;;4.10;99.90;;;;;;2072226;28;20032;-69
2022/04/10 03:50:22;;;;;;;8.05;2.95;;;4.20;99.90;;;;;;2072015;28;20049;-69
2022/04/10 03:51:23;;;;;;;8.07;3.00;;;4.10;99.90;;;;;;2063865;28;20065;-69
2022/04/10 03:52:24;;;;;;;9.13;2.92;;;4.10;99.90;;;;;;2064228;28;20026;-69
2022/04/10 03:53:25;;;;;;;9.02;2.90;;;4.10;99.90;;;;;;2063624;28;20026;-70
2022/04/10 03:54:26;;;;;;;7.93;3.00;;;4.10;99.90;;;;;;2056215;28;20062;-69
2022/04/10 03:55:27;;;;;;;8.77;3.10;;;4.10;99.90;;;;;;2064066;28;20033;-69
2022/04/10 03:56:31;;;;;;;7.00;3.00;;;4.10;99.90;;;;;;2072213;28;20069;-69
2022/04/10 03:57:32;;;;;;;6.45;2.78;;;4.10;99.90;;;;;;2064123;28;20034;-69
2022/04/10 03:58:35;;;;;;;8.70;3.25;;;4.10;99.90;;;;;;2064326;28;20037;-68
2022/04/10 03:59:37;;;;;;;7.95;2.83;;;4.10;99.90;;;;;;2064352;28;20023;-72
2022/04/10 04:00:38;;;;;;;8.25;2.90;;;4.10;99.90;;;;;;2064317;28;20033;-68
2022/04/10 04:01:43;;;;;;;7.32;3.08;;;4.10;99.90;;;;;;2064312;28;20537;-69
2022/04/10 04:02:46;;;;;;;9.93;2.75;;;4.10;99.90;;;;;;2064645;28;20410;-69
2022/04/10 04:03:55;;;;;;;7.57;2.90;;;4.10;99.90;;;;;;2072332;28;20030;-68
2022/04/10 04:04:55;;;;;;;8.95;3.30;;;4.00;99.90;;;;;;2064078;28;20018;-69
2022/04/10 04:05:57;;;;;;;7.90;3.00;;;4.00;99.90;;;;;;2063371;28;20022;-68
2022/04/10 04:06:58;;;;;;;11.50;3.33;;;4.00;99.90;;;;;;2063460;28;20030;-68
2022/04/10 04:08:04;;;;;;;8.32;3.60;;;4.00;99.90;;;;;;2064002;28;20026;-68
2022/04/10 04:09:06;;;;;;;8.63;3.22;;;4.00;99.90;;;;;;2071537;28;20154;-68
2022/04/10 04:10:07;;;;;;;9.20;3.03;;;4.10;99.90;;;;;;2071460;28;20116;-68
2022/04/10 04:11:10;;;;;;;8.60;3.22;;;4.00;99.90;;;;;;2071579;28;20057;-68
2022/04/10 04:12:12;;;;;;;8.77;3.45;;;4.00;99.90;;;;;;2063586;28;20426;-68
2022/04/10 04:13:14;;;;;;;7.82;3.20;;;4.00;99.90;;;;;;2063359;28;20027;-68
2022/04/10 04:14:15;;;;;;;9.07;3.40;;;4.00;99.90;;;;;;2063572;28;20058;-69
2022/04/10 04:15:16;;;;;;;8.77;3.30;;;4.00;99.90;;;;;;2071397;28;20052;-68
2022/04/10 04:16:16;;;;;;;8.23;3.20;;;4.00;99.90;;;;;;2071726;28;20026;-68
2022/04/10 04:17:18;;;;;;;9.32;3.10;;;4.00;99.90;;;;;;2071372;28;20448;-68
2022/04/10 04:18:18;;;;;;;7.03;3.15;;;4.00;99.90;;;;;;2063362;28;20577;-68
2022/04/10 04:19:19;;;;;;;6.57;3.40;;;4.10;99.90;;;;;;2063336;28;20026;-68
2022/04/10 04:20:20;;;;;;;7.85;3.28;;;4.10;99.90;;;;;;2063260;28;20645;-68
2022/04/10 04:21:22;;;;;;;9.00;3.50;;;4.10;99.90;;;;;;2055518;28;20039;-68
2022/04/10 04:22:22;;;;;;;8.82;3.33;;;4.10;99.90;;;;;;2063488;28;20030;-69
2022/04/10 04:23:23;;;;;;;9.35;3.85;;;4.10;99.90;;;;;;2062999;28;20022;-68
2022/04/10 04:24:25;;;;;;;8.68;3.20;;;4.10;99.90;;;;;;2063254;28;20413;-68
2022/04/10 04:25:26;;;;;;;10.07;3.65;;;4.10;99.90;;;;;;2055395;28;20037;-68
2022/04/10 04:26:29;;;;;;;9.65;3.63;;;4.10;99.90;;;;;;2055721;28;20409;-68
2022/04/10 04:27:30;;;;;;;8.20;3.17;;;4.10;99.90;;;;;;2063363;28;20046;-69
2022/04/10 04:28:32;;;;;;;6.82;3.33;;;4.10;99.90;;;;;;2071528;28;20041;-70
2022/04/10 04:29:33;;;;;;;9.63;3.53;;;4.10;99.90;;;;;;2071806;28;20139;-69
2022/04/10 04:30:34;;;;;;;7.70;3.20;;;4.10;99.90;;;;;;2063989;28;20051;-68
2022/04/10 04:31:38;;;;;;;8.80;3.30;;;4.10;99.90;;;;;;2064387;28;20058;-68
2022/04/10 04:32:38;;;;;;;7.70;3.30;;;4.10;99.90;;;;;;2072254;28;20120;-68
2022/04/10 04:33:39;;;;;;;9.82;3.58;;;4.10;99.90;;;;;;2072481;28;20037;-68
2022/04/10 04:34:41;;;;;;;9.45;3.50;;;4.10;99.90;;;;;;2064459;28;20082;-68
2022/04/10 04:35:41;;;;;;;9.25;3.80;;;4.10;99.90;;;;;;2072466;28;20100;-68
2022/04/10 04:36:42;;;;;;;11.63;3.95;;;4.10;99.90;;;;;;2071545;28;20026;-67
2022/04/10 04:37:43;;;;;;;8.13;3.60;;;4.10;99.90;;;;;;2063173;28;20081;-68
2022/04/10 04:38:48;;;;;;;7.50;3.30;;;4.10;99.90;;;;;;2071294;28;20116;-68
2022/04/10 04:39:51;;;;;;;9.30;3.83;;;4.10;99.90;;;;;;2063320;28;20030;-68
2022/04/10 04:40:52;;;;;;;7.57;3.40;;;4.10;99.90;;;;;;2071080;28;20026;-68
2022/04/10 04:41:53;;;;;;;7.03;3.30;;;4.10;99.90;;;;;;2071241;28;20022;-68
2022/04/10 04:42:54;;;;;;;10.10;3.30;;;4.10;99.90;;;;;;2063138;28;20022;-68
2022/04/10 04:43:57;;;;;;;6.90;3.17;;;4.10;99.90;;;;;;2055423;28;20058;-68
2022/04/10 04:44:58;;;;;;;7.85;3.42;;;4.20;99.90;;;;;;2063233;28;20405;-68
2022/04/10 04:45:59;;;;;;;7.70;3.33;;;4.20;99.90;;;;;;2071364;28;20108;-67
2022/04/10 04:46:59;;;;;;;6.47;3.30;;;4.20;99.90;;;;;;2070924;28;20033;-68
2022/04/10 04:48:00;;;;;;;8.13;3.30;;;4.20;99.90;;;;;;2070976;28;20497;-68
2022/04/10 04:49:01;;;;;;;9.40;3.70;;;4.20;99.90;;;;;;2071172;28;20041;-68
2022/04/10 04:50:02;;;;;;;7.32;3.40;;;4.30;99.90;;;;;;2071023;28;20061;-68
2022/04/10 04:51:07;;;;;;;10.88;3.70;;;4.30;99.90;;;;;;2071245;28;20084;-68
2022/04/10 04:52:08;;;;;;;9.35;3.60;;;4.20;99.90;;;;;;2071441;28;20567;-69
2022/04/10 04:53:09;;;;;;;10.25;3.70;;;4.20;99.90;;;;;;2070870;28;20041;-68
2022/04/10 04:54:10;;;;;;;10.20;3.55;;;4.20;99.90;;;;;;2063150;28;20038;-68
2022/04/10 04:55:12;;;;;;;8.68;3.30;;;4.30;99.90;;;;;;2063063;28;20034;-69
2022/04/10 04:56:13;;;;;;;8.00;3.50;;;4.30;99.90;;;;;;2063322;28;20036;-68
2022/04/10 04:57:15;;;;;;;9.13;3.50;;;4.30;99.90;;;;;;2071313;28;20018;-68
2022/04/10 04:58:19;;;;;;;7.32;3.42;;;4.30;99.90;;;;;;2071225;28;20093;-68
2022/04/10 04:59:20;;;;;;;10.55;3.70;;;4.30;99.90;;;;;;2071044;28;20030;-68
2022/04/10 05:00:21;;;;;;;6.63;3.38;;;4.30;99.90;;;;;;2071006;28;20037;-68
2022/04/10 05:01:29;;;;;;;8.02;3.60;;;4.30;99.90;;;;;;2071082;28;20448;-68
2022/04/10 05:02:30;;;;;;;8.80;3.35;;;4.30;99.90;;;;;;2071261;28;20030;-71
2022/04/10 05:03:31;;;;;;;6.38;3.63;;;4.30;99.90;;;;;;2062443;28;20026;-68
2022/04/10 05:04:31;;;;;;;9.93;3.53;;;4.30;99.90;;;;;;2063054;28;20836;-68
2022/04/10 05:05:33;;;;;;;8.50;3.55;;;4.30;99.90;;;;;;2063242;28;20050;-68
2022/04/10 05:06:44;;;;;;;7.95;3.72;;;4.30;99.90;;;;;;2071400;28;20123;-68
2022/04/10 05:07:45;;;;;;;9.52;3.60;;;4.30;99.90;;;;;;2071772;28;20036;-68
2022/04/10 05:08:46;;;;;;;9.57;4.00;;;4.30;99.90;;;;;;2070981;28;20022;-68
2022/04/10 05:09:47;;;;;;;8.50;3.38;;;4.30;99.90;;;;;;2063583;28;20046;-68
2022/04/10 05:10:48;;;;;;;10.00;3.40;;;4.30;99.90;;;;;;2063348;28;20084;-69
2022/04/10 05:11:51;;;;;;;10.85;3.42;;;4.30;99.90;;;;;;2063888;28;20632;-68
2022/04/10 05:12:52;;;;;;;7.25;3.40;;;4.30;99.90;;;;;;2071685;28;20500;-69
2022/04/10 05:13:56;;;;;;;8.05;3.65;;;4.30;99.90;;;;;;2064159;28;20482;-68
2022/04/10 05:14:56;;;;;;;9.25;3.80;;;4.30;99.90;;;;;;2073251;28;20034;-69
2022/04/10 05:15:57;;;;;;;9.00;3.55;;;4.40;99.90;;;;;;2073887;28;20045;-69
2022/04/10 05:17:03;;;;;;;8.95;4.07;;;4.40;99.90;;;;;;2067336;28;20238;-68
2022/04/10 05:18:06;;;;;;;7.53;3.30;;;4.40;99.90;;;;;;2064918;28;20038;-68
2022/04/10 05:19:09;;;;;;;8.15;3.70;;;4.40;99.90;;;;;;2063563;28;20742;-68
2022/04/10 05:20:10;;;;;;;7.97;3.45;;;4.40;99.90;;;;;;2071010;28;20482;-67
2022/04/10 05:21:18;;;;;;;7.57;3.40;;;4.40;99.90;;;;;;2063610;28;20129;-67
2022/04/10 05:22:19;;;;;;;7.22;3.40;;;4.40;99.90;;;;;;2062861;28;20026;-68
2022/04/10 05:23:28;;;;;;;8.43;3.50;;;4.40;99.90;;;;;;2063669;28;20546;-68
2022/04/10 05:24:37;;;;;;;7.78;3.55;;;4.40;99.90;;;;;;2063831;28;20026;-68
2022/04/10 05:25:39;;;;;;;7.22;3.40;;;4.40;99.90;;;;;;2063154;28;20103;-68